createdAt,value
2023-05-31T00:00:16.782Z,64.3
2023-05-31T00:05:16.831Z,64.7
2023-05-31T00:10:19.768Z,64.9
2023-05-31T00:15:19.768Z,64.8
2023-05-31T00:20:16.881Z,64.7
2023-05-31T00:25:19.856Z,64.6
2023-05-31T00:30:19.789Z,64.5
2023-05-31T00:35:16.833Z,64.4
2023-05-31T00:40:19.810Z,64.2
2023-05-31T00:45:16.822Z,64.0
2023-05-31T00:50:16.863Z,63.6
2023-05-31T00:55:19.835Z,63.4
2023-05-31T01:00:16.871Z,63.1
2023-05-31T01:05:19.796Z,62.9
2023-05-31T01:10:16.834Z,62.6
2023-05-31T01:15:19.840Z,62.2
2023-05-31T01:20:19.810Z,62.0
2023-05-31T01:25:19.892Z,61.8
2023-05-31T01:30:19.787Z,61.5
2023-05-31T01:35:16.866Z,61.3
2023-05-31T01:40:19.869Z,61.2
2023-05-31T01:45:19.834Z,61.1
2023-05-31T01:50:16.882Z,61.0
2023-05-31T01:55:19.807Z,60.9
2023-05-31T02:00:19.816Z,60.7
2023-05-31T02:05:19.798Z,60.6
2023-05-31T02:10:19.801Z,60.4
2023-05-31T02:15:19.883Z,60.2
2023-05-31T02:20:19.899Z,60.0
2023-05-31T02:25:17.036Z,59.8
2023-05-31T02:30:19.871Z,59.6
2023-05-31T02:35:16.865Z,59.3
2023-05-31T02:40:19.873Z,59.1
2023-05-31T02:45:16.946Z,58.9
2023-05-31T02:50:19.889Z,58.6
2023-05-31T02:55:19.870Z,58.3
2023-05-31T03:00:16.939Z,58.1
2023-05-31T03:05:19.862Z,57.9
2023-05-31T03:10:16.914Z,57.8
2023-05-31T03:15:19.920Z,57.6
2023-05-31T03:20:16.750Z,57.4
2023-05-31T03:25:19.921Z,57.3
2023-05-31T03:30:16.884Z,57.1
2023-05-31T03:35:19.948Z,56.9
2023-05-31T03:40:19.855Z,56.8
2023-05-31T03:45:16.919Z,56.6
2023-05-31T03:50:19.951Z,56.4
2023-05-31T03:55:16.945Z,56.3
2023-05-31T04:00:19.223Z,56.1
2023-05-31T04:05:19.210Z,55.9
2023-05-31T04:10:19.140Z,55.8
2023-05-31T04:15:19.133Z,55.6
2023-05-31T04:20:16.299Z,55.4
2023-05-31T04:25:19.127Z,55.2
2023-05-31T04:30:19.155Z,55.0
2023-05-31T04:35:19.104Z,54.9
2023-05-31T04:40:19.098Z,54.7
2023-05-31T04:45:19.195Z,54.5
2023-05-31T04:50:19.130Z,54.4
2023-05-31T04:55:19.149Z,54.2
2023-05-31T05:00:16.228Z,54.1
2023-05-31T05:05:19.189Z,53.9
2023-05-31T05:10:19.140Z,53.8
2023-05-31T05:15:19.162Z,53.6
2023-05-31T05:20:19.152Z,53.5
2023-05-31T05:25:16.169Z,53.4
2023-05-31T05:30:16.245Z,53.3
2023-05-31T05:35:19.275Z,53.2
2023-05-31T05:40:19.122Z,53.1
2023-05-31T05:45:16.231Z,53.2
2023-05-31T05:50:19.238Z,53.2
2023-05-31T05:55:21.046Z,53.2
2023-05-31T06:00:16.255Z,53.2
2023-05-31T06:05:16.031Z,53.1
2023-05-31T06:10:19.217Z,53.1
2023-05-31T06:15:19.160Z,53.0
2023-05-31T06:20:19.267Z,52.8
2023-05-31T06:25:19.239Z,52.7
2023-05-31T06:30:16.230Z,52.6
2023-05-31T06:35:19.149Z,52.6
2023-05-31T06:40:19.167Z,52.5
2023-05-31T06:45:19.200Z,52.5
2023-05-31T06:50:16.203Z,52.4
2023-05-31T06:55:19.195Z,52.4
2023-05-31T07:00:19.163Z,52.3
2023-05-31T07:05:19.169Z,52.2
2023-05-31T07:10:19.130Z,52.1
2023-05-31T07:15:19.223Z,52.1
2023-05-31T07:20:19.266Z,51.9
2023-05-31T07:25:16.192Z,51.9
2023-05-31T07:30:16.249Z,51.8
2023-05-31T07:35:19.269Z,51.7
2023-05-31T07:40:19.200Z,51.7
2023-05-31T07:45:19.180Z,51.6
2023-05-31T07:50:19.225Z,51.5
2023-05-31T07:55:19.278Z,51.4
2023-05-31T08:00:16.253Z,51.3
2023-05-31T08:05:16.168Z,51.3
2023-05-31T08:10:19.187Z,51.2
2023-05-31T08:15:19.242Z,51.2
2023-05-31T08:20:16.303Z,51.1
2023-05-31T08:25:19.200Z,51.0
2023-05-31T08:30:19.225Z,51.0
2023-05-31T08:35:19.262Z,50.9
2023-05-31T08:40:16.292Z,50.8
2023-05-31T08:45:19.217Z,50.7
2023-05-31T08:50:16.257Z,50.6
2023-05-31T08:55:19.250Z,50.5
2023-05-31T09:00:16.254Z,50.3
2023-05-31T09:05:19.279Z,50.2
2023-05-31T09:10:16.227Z,50.1
2023-05-31T09:15:19.288Z,50.0
2023-05-31T09:20:16.288Z,49.8
2023-05-31T09:25:19.255Z,49.8
2023-05-31T09:30:16.286Z,49.7
2023-05-31T09:35:19.312Z,49.6
2023-05-31T09:40:16.254Z,49.7
2023-05-31T09:45:16.270Z,49.7
2023-05-31T09:50:19.536Z,49.7
2023-05-31T09:55:16.281Z,49.6
2023-05-31T10:00:16.316Z,49.7
2023-05-31T10:05:16.277Z,49.7
2023-05-31T10:10:19.269Z,49.7
2023-05-31T10:15:19.306Z,49.7
2023-05-31T10:20:16.331Z,49.7
2023-05-31T10:25:19.280Z,49.8
2023-05-31T10:30:16.388Z,50.1
2023-05-31T10:35:19.299Z,50.4
2023-05-31T10:40:19.270Z,50.6
2023-05-31T10:45:16.293Z,51.1
2023-05-31T10:50:19.289Z,51.4
2023-05-31T10:55:16.347Z,51.7
2023-05-31T11:00:16.618Z,51.9
2023-05-31T11:05:19.391Z,52.3
2023-05-31T11:10:19.232Z,52.6
2023-05-31T11:15:16.266Z,52.9
2023-05-31T11:20:16.364Z,53.1
2023-05-31T11:25:19.407Z,53.4
2023-05-31T11:30:19.304Z,53.7
2023-05-31T11:35:19.314Z,53.9
2023-05-31T11:40:19.325Z,54.2
2023-05-31T11:45:19.339Z,54.6
2023-05-31T11:50:16.344Z,55.1
2023-05-31T11:55:19.339Z,55.3
2023-05-31T12:00:19.331Z,55.7
2023-05-31T12:05:19.293Z,56.0
2023-05-31T12:10:19.330Z,56.4
2023-05-31T12:15:19.279Z,56.7
2023-05-31T12:20:16.393Z,57.3
2023-05-31T12:25:16.509Z,57.9
2023-05-31T12:30:19.524Z,56.9
2023-05-31T12:35:19.397Z,58.3
2023-05-31T12:40:20.829Z,58.9
2023-05-31T12:45:19.351Z,60.0
2023-05-31T12:50:19.337Z,60.4
2023-05-31T12:55:16.335Z,60.2
2023-05-31T13:00:19.288Z,60.9
2023-05-31T13:05:19.404Z,60.8
2023-05-31T13:10:16.382Z,62.3
2023-05-31T13:15:19.397Z,63.2
2023-05-31T13:20:16.331Z,64.5
2023-05-31T13:25:19.367Z,63.6
2023-05-31T13:30:19.469Z,65.0
2023-05-31T13:35:19.342Z,66.8
2023-05-31T13:40:19.313Z,67.2
2023-05-31T13:45:19.314Z,68.2
2023-05-31T13:50:16.434Z,66.6
2023-05-31T13:55:19.334Z,66.0
2023-05-31T14:00:19.362Z,66.7
2023-05-31T14:05:19.350Z,67.6
2023-05-31T14:10:16.544Z,68.3
2023-05-31T14:15:19.373Z,68.4
2023-05-31T14:20:19.410Z,68.1
2023-05-31T14:25:19.364Z,69.8
2023-05-31T14:30:19.385Z,70.7
2023-05-31T14:35:16.438Z,72.5
2023-05-31T14:40:19.466Z,71.9
2023-05-31T14:45:19.370Z,72.4
2023-05-31T14:50:19.391Z,72.6
2023-05-31T14:55:19.455Z,73.5
2023-05-31T15:00:19.377Z,74.8
2023-05-31T15:05:19.338Z,73.4
2023-05-31T15:10:19.590Z,72.7
2023-05-31T15:15:19.424Z,75.5
2023-05-31T15:20:19.378Z,76.3
2023-05-31T15:25:16.380Z,76.6
2023-05-31T15:30:19.454Z,76.0
2023-05-31T15:35:16.441Z,75.3
2023-05-31T15:40:19.439Z,75.9
2023-05-31T15:45:19.436Z,77.9
2023-05-31T15:50:19.426Z,76.1
2023-05-31T15:55:19.476Z,77.0
2023-05-31T16:00:19.457Z,77.8
2023-05-31T16:05:19.397Z,79.0
2023-05-31T16:10:19.405Z,79.5
2023-05-31T16:15:19.377Z,78.2
2023-05-31T16:20:19.479Z,79.2
2023-05-31T16:25:19.397Z,78.8
2023-05-31T16:30:16.473Z,77.8
2023-05-31T16:35:16.530Z,79.4
2023-05-31T16:40:16.495Z,79.5
2023-05-31T16:45:19.425Z,79.8
2023-05-31T16:50:19.401Z,79.4
2023-05-31T16:55:16.468Z,79.9
2023-05-31T17:00:16.653Z,80.1
2023-05-31T17:05:19.496Z,81.1
2023-05-31T17:10:16.601Z,80.5
2023-05-31T17:15:19.466Z,80.6
2023-05-31T17:20:19.422Z,79.9
2023-05-31T17:25:19.425Z,81.0
2023-05-31T17:30:19.478Z,80.2
2023-05-31T17:35:16.508Z,79.3
2023-05-31T17:40:19.478Z,81.3
2023-05-31T17:45:19.504Z,81.3
2023-05-31T17:50:16.534Z,81.5
2023-05-31T17:55:19.534Z,80.2
2023-05-31T18:00:19.519Z,80.9
2023-05-31T18:05:19.504Z,80.0
2023-05-31T18:10:19.541Z,80.4
2023-05-31T18:15:19.429Z,80.2
2023-05-31T18:20:19.492Z,80.8
2023-05-31T18:25:19.462Z,81.0
2023-05-31T18:30:19.464Z,81.0
2023-05-31T18:35:19.448Z,81.3
2023-05-31T18:40:19.467Z,81.1
2023-05-31T18:45:19.442Z,81.0
2023-05-31T18:50:19.464Z,81.2
2023-05-31T18:55:16.513Z,81.0
2023-05-31T19:00:16.512Z,81.5
2023-05-31T19:05:16.516Z,81.2
2023-05-31T19:10:19.556Z,80.8
2023-05-31T19:15:19.530Z,80.8
2023-05-31T19:20:19.699Z,80.7
2023-05-31T19:25:19.509Z,80.6
2023-05-31T19:30:19.460Z,80.3
2023-05-31T19:35:19.479Z,80.5
2023-05-31T19:40:19.573Z,80.4
2023-05-31T19:45:19.514Z,80.2
2023-05-31T19:50:19.495Z,80.3
2023-05-31T19:55:16.558Z,80.9
2023-05-31T20:00:19.536Z,80.7
2023-05-31T20:05:19.818Z,80.5
2023-05-31T20:10:19.501Z,80.7
2023-05-31T20:15:19.449Z,80.3
2023-05-31T20:20:19.544Z,80.0
2023-05-31T20:25:19.466Z,80.4
2023-05-31T20:30:19.479Z,80.6
2023-05-31T20:35:19.481Z,80.2
2023-05-31T20:40:19.460Z,80.3
2023-05-31T20:45:19.719Z,80.4
2023-05-31T20:50:19.500Z,80.4
2023-05-31T20:55:16.546Z,80.3
2023-05-31T21:00:19.572Z,80.4
2023-05-31T21:05:19.570Z,80.4
2023-05-31T21:10:19.571Z,80.5
2023-05-31T21:15:19.577Z,80.7
2023-05-31T21:20:19.585Z,80.7
2023-05-31T21:25:16.611Z,80.7
2023-05-31T21:30:19.604Z,80.7
2023-05-31T21:35:19.593Z,80.8
2023-05-31T21:40:19.549Z,80.7
2023-05-31T21:45:19.515Z,80.6
2023-05-31T21:50:19.540Z,80.6
2023-05-31T21:55:19.522Z,80.2
2023-05-31T22:00:19.524Z,80.0
2023-05-31T22:05:19.513Z,80.0
2023-05-31T22:10:19.542Z,79.9
2023-05-31T22:15:19.566Z,79.8
2023-05-31T22:20:19.565Z,80.0
2023-05-31T22:25:16.574Z,79.7
2023-05-31T22:30:16.614Z,79.4
2023-05-31T22:35:19.542Z,79.4
2023-05-31T22:40:19.520Z,79.2
2023-05-31T22:45:19.592Z,79.1
2023-05-31T22:50:19.521Z,78.9
2023-05-31T22:55:19.568Z,78.7
2023-05-31T23:00:19.581Z,78.4
2023-05-31T23:05:19.563Z,78.2
2023-05-31T23:10:16.567Z,78.0
2023-05-31T23:15:16.658Z,77.7
2023-05-31T23:20:19.602Z,77.3
2023-05-31T23:25:19.700Z,77.0
2023-05-31T23:30:19.571Z,76.7
2023-05-31T23:35:19.700Z,76.4
2023-05-31T23:40:19.605Z,76.1
2023-05-31T23:45:19.645Z,75.7
2023-05-31T23:50:16.679Z,75.3
2023-05-31T23:55:16.607Z,74.8
